sensor_id;sensor_type;location;lat;lon;timestamp;pressure;altitude;pressure_sealevel;temperature;humidity
9307;BME280;4691;47.612;7.610;2023-02-20T00:01:24;99767.16;;;8.00;100.00
9307;BME280;4691;47.612;7.610;2023-02-20T00:03:50;99760.97;;;7.99;100.00
9307;BME280;4691;47.612;7.610;2023-02-20T00:06:16;99759.16;;;8.00;100.00
9307;BME280;4691;47.612;7.610;2023-02-20T00:08:41;99758.75;;;7.90;100.00
9307;BME280;4691;47.612;7.610;2023-02-20T00:11:07;99783.75;;;7.88;100.00
9307;BME280;4691;47.612;7.610;2023-02-20T00:13:35;99816.56;;;7.88;100.00
9307;BME280;4691;47.612;7.610;2023-02-20T00:16:01;99827.00;;;7.93;100.00
9307;BME280;4691;47.612;7.610;2023-02-20T00:18:26;99843.19;;;7.88;100.00
9307;BME280;4691;47.612;7.610;2023-02-20T00:20:52;99845.69;;;7.91;100.00
9307;BME280;4691;47.612;7.610;2023-02-20T00:23:17;99857.25;;;7.92;100.00
9307;BME280;4691;47.612;7.610;2023-02-20T00:25:46;99869.53;;;7.94;100.00
9307;BME280;4691;47.612;7.610;2023-02-20T00:28:11;99847.28;;;7.95;100.00
9307;BME280;4691;47.612;7.610;2023-02-20T00:30:40;99843.44;;;8.01;100.00
9307;BME280;4691;47.612;7.610;2023-02-20T00:33:05;99822.13;;;8.01;100.00
9307;BME280;4691;47.612;7.610;2023-02-20T00:35:31;99817.81;;;7.98;100.00
9307;BME280;4691;47.612;7.610;2023-02-20T00:37:57;99825.91;;;7.97;100.00
9307;BME280;4691;47.612;7.610;2023-02-20T00:40:24;99846.44;;;7.95;100.00
9307;BME280;4691;47.612;7.610;2023-02-20T00:42:50;99864.28;;;7.93;100.00
9307;BME280;4691;47.612;7.610;2023-02-20T00:45:16;99892.50;;;7.97;100.00
9307;BME280;4691;47.612;7.610;2023-02-20T00:47:45;99889.69;;;8.00;100.00
9307;BME280;4691;47.612;7.610;2023-02-20T00:50:12;99870.06;;;8.01;100.00
9307;BME280;4691;47.612;7.610;2023-02-20T00:52:38;99873.53;;;8.03;100.00
9307;BME280;4691;47.612;7.610;2023-02-20T00:55:04;99882.75;;;7.96;100.00
9307;BME280;4691;47.612;7.610;2023-02-20T00:57:30;99906.09;;;7.91;100.00
9307;BME280;4691;47.612;7.610;2023-02-20T00:59:55;99902.53;;;7.92;100.00
9307;BME280;4691;47.612;7.610;2023-02-20T01:02:21;99913.72;;;7.81;100.00
9307;BME280;4691;47.612;7.610;2023-02-20T01:04:47;99955.69;;;7.76;100.00
9307;BME280;4691;47.612;7.610;2023-02-20T01:07:15;99985.75;;;7.59;100.00
9307;BME280;4691;47.612;7.610;2023-02-20T01:09:41;100014.94;;;7.41;100.00
9307;BME280;4691;47.612;7.610;2023-02-20T01:12:06;100063.06;;;7.37;100.00
9307;BME280;4691;47.612;7.610;2023-02-20T01:14:36;100087.44;;;7.28;100.00
9307;BME280;4691;47.612;7.610;2023-02-20T01:17:01;100108.13;;;7.21;100.00
9307;BME280;4691;47.612;7.610;2023-02-20T01:19:27;100129.19;;;7.05;100.00
9307;BME280;4691;47.612;7.610;2023-02-20T01:21:52;100187.34;;;6.92;100.00
9307;BME280;4691;47.612;7.610;2023-02-20T01:24:18;100240.34;;;6.75;100.00
9307;BME280;4691;47.612;7.610;2023-02-20T01:26:45;100291.13;;;6.69;100.00
9307;BME280;4691;47.612;7.610;2023-02-20T01:29:12;100338.41;;;6.61;100.00
9307;BME280;4691;47.612;7.610;2023-02-20T01:31:38;100380.97;;;6.34;100.00
9307;BME280;4691;47.612;7.610;2023-02-20T01:34:04;100431.44;;;6.36;100.00
9307;BME280;4691;47.612;7.610;2023-02-20T01:36:34;100466.22;;;6.28;100.00
9307;BME280;4691;47.612;7.610;2023-02-20T01:39:00;100503.06;;;6.12;100.00
9307;BME280;4691;47.612;7.610;2023-02-20T01:41:25;100583.97;;;6.02;100.00
9307;BME280;4691;47.612;7.610;2023-02-20T01:43:51;100635.09;;;6.08;100.00
9307;BME280;4691;47.612;7.610;2023-02-20T01:49:04;100724.94;;;5.93;100.00
9307;BME280;4691;47.612;7.610;2023-02-20T01:51:36;100816.50;;;5.78;100.00
9307;BME280;4691;47.612;7.610;2023-02-20T01:54:13;100856.28;;;5.81;100.00
9307;BME280;4691;47.612;7.610;2023-02-20T01:56:40;100900.31;;;5.89;100.00
9307;BME280;4691;47.612;7.610;2023-02-20T01:59:11;101058.97;;;5.80;100.00
9307;BME280;4691;47.612;7.610;2023-02-20T02:01:37;101100.00;;;5.66;100.00
9307;BME280;4691;47.612;7.610;2023-02-20T02:04:07;101109.84;;;5.61;100.00
9307;BME280;4691;47.612;7.610;2023-02-20T02:06:39;101132.16;;;5.51;100.00
9307;BME280;4691;47.612;7.610;2023-02-20T02:09:18;101153.25;;;5.57;100.00
9307;BME280;4691;47.612;7.610;2023-02-20T02:11:47;101182.53;;;5.54;100.00
9307;BME280;4691;47.612;7.610;2023-02-20T02:14:13;101197.66;;;5.51;100.00
9307;BME280;4691;47.612;7.610;2023-02-20T02:38:50;101296.75;;;4.95;100.00
9307;BME280;4691;47.612;7.610;2023-02-20T02:44:31;101308.16;;;5.02;100.00
9307;BME280;4691;47.612;7.610;2023-02-20T02:47:10;101309.81;;;5.09;100.00
9307;BME280;4691;47.612;7.610;2023-02-20T02:49:52;101315.19;;;5.03;100.00
9307;BME280;4691;47.612;7.610;2023-02-20T02:52:20;101311.50;;;5.13;100.00
9307;BME280;4691;47.612;7.610;2023-02-20T02:55:07;101309.88;;;5.06;100.00
9307;BME280;4691;47.612;7.610;2023-02-20T02:57:33;101297.50;;;5.05;100.00
9307;BME280;4691;47.612;7.610;2023-02-20T03:00:21;101277.25;;;4.99;100.00
9307;BME280;4691;47.612;7.610;2023-02-20T03:10:57;101264.22;;;4.86;100.00
9307;BME280;4691;47.612;7.610;2023-02-20T03:13:25;101267.19;;;4.64;100.00
9307;BME280;4691;47.612;7.610;2023-02-20T03:19:47;101207.28;;;4.52;100.00
9307;BME280;4691;47.612;7.610;2023-02-20T03:22:33;101220.44;;;4.57;100.00
9307;BME280;4691;47.612;7.610;2023-02-20T03:25:28;101226.41;;;4.73;100.00
9307;BME280;4691;47.612;7.610;2023-02-20T03:27:59;101224.72;;;4.67;100.00
9307;BME280;4691;47.612;7.610;2023-02-20T03:32:59;101226.72;;;4.51;100.00
9307;BME280;4691;47.612;7.610;2023-02-20T03:35:45;101217.91;;;4.52;100.00
9307;BME280;4691;47.612;7.610;2023-02-20T03:38:33;101221.59;;;4.42;100.00
9307;BME280;4691;47.612;7.610;2023-02-20T03:41:20;101234.94;;;4.31;100.00
9307;BME280;4691;47.612;7.610;2023-02-20T03:44:05;101244.75;;;4.26;100.00
9307;BME280;4691;47.612;7.610;2023-02-20T03:46:35;101251.03;;;4.19;100.00
9307;BME280;4691;47.612;7.610;2023-02-20T03:49:06;101258.13;;;4.17;100.00
9307;BME280;4691;47.612;7.610;2023-02-20T03:51:53;101260.91;;;4.06;100.00
9307;BME280;4691;47.612;7.610;2023-02-20T03:54:21;101268.91;;;4.02;100.00
9307;BME280;4691;47.612;7.610;2023-02-20T03:56:49;101286.34;;;4.18;100.00
9307;BME280;4691;47.612;7.610;2023-02-20T04:01:51;101314.00;;;3.94;100.00
9307;BME280;4691;47.612;7.610;2023-02-20T04:04:24;101319.34;;;3.91;94.83
9307;BME280;4691;47.612;7.610;2023-02-20T04:06:51;101318.47;;;3.90;88.79
9307;BME280;4691;47.612;7.610;2023-02-20T04:09:21;101328.31;;;3.76;87.19
9307;BME280;4691;47.612;7.610;2023-02-20T04:12:08;101335.34;;;3.77;81.10
9307;BME280;4691;47.612;7.610;2023-02-20T04:14:35;101337.03;;;3.84;75.41
9307;BME280;4691;47.612;7.610;2023-02-20T04:17:05;101325.50;;;3.91;69.01
9307;BME280;4691;47.612;7.610;2023-02-20T04:19:32;101333.53;;;3.85;65.95
9307;BME280;4691;47.612;7.610;2023-02-20T04:22:03;101324.72;;;3.82;64.51
9307;BME280;4691;47.612;7.610;2023-02-20T04:24:43;101320.34;;;3.79;64.12
9307;BME280;4691;47.612;7.610;2023-02-20T04:27:12;101315.78;;;3.93;63.10
9307;BME280;4691;47.612;7.610;2023-02-20T04:29:38;101316.69;;;3.89;65.32
9307;BME280;4691;47.612;7.610;2023-02-20T04:32:03;101314.00;;;3.94;65.78
9307;BME280;4691;47.612;7.610;2023-02-20T04:34:29;101316.66;;;3.92;67.93
9307;BME280;4691;47.612;7.610;2023-02-20T04:37:12;101311.28;;;4.02;68.48
9307;BME280;4691;47.612;7.610;2023-02-20T04:39:38;101295.34;;;4.05;70.85
9307;BME280;4691;47.612;7.610;2023-02-20T04:42:03;101307.88;;;3.87;73.15
9307;BME280;4691;47.612;7.610;2023-02-20T04:44:29;101298.19;;;3.86;70.92
9307;BME280;4691;47.612;7.610;2023-02-20T04:47:06;101289.44;;;3.80;67.12
9307;BME280;4691;47.612;7.610;2023-02-20T04:49:32;101290.47;;;3.68;64.56
9307;BME280;4691;47.612;7.610;2023-02-20T04:51:57;101294.06;;;3.61;61.18
9307;BME280;4691;47.612;7.610;2023-02-20T04:54:23;101287.78;;;3.69;56.61
9307;BME280;4691;47.612;7.610;2023-02-20T04:56:51;101286.13;;;3.59;55.10
9307;BME280;4691;47.612;7.610;2023-02-20T04:59:17;101284.31;;;3.67;52.86
9307;BME280;4691;47.612;7.610;2023-02-20T05:01:43;101282.44;;;3.74;50.69
9307;BME280;4691;47.612;7.610;2023-02-20T05:04:14;101278.75;;;3.87;49.54
9307;BME280;4691;47.612;7.610;2023-02-20T05:06:47;101275.91;;;4.06;49.22
9307;BME280;4691;47.612;7.610;2023-02-20T05:09:12;101279.66;;;3.86;54.47
9307;BME280;4691;47.612;7.610;2023-02-20T05:11:38;101275.53;;;3.61;59.66
9307;BME280;4691;47.612;7.610;2023-02-20T05:14:04;101277.38;;;3.53;62.16
9307;BME280;4691;47.612;7.610;2023-02-20T05:16:33;101268.66;;;3.43;63.57
9307;BME280;4691;47.612;7.610;2023-02-20T05:18:58;101258.94;;;3.43;63.51
9307;BME280;4691;47.612;7.610;2023-02-20T05:21:26;101251.16;;;3.30;64.37
9307;BME280;4691;47.612;7.610;2023-02-20T05:24:10;101239.66;;;3.32;62.28
9307;BME280;4691;47.612;7.610;2023-02-20T05:26:36;101238.88;;;3.24;62.03
9307;BME280;4691;47.612;7.610;2023-02-20T05:29:01;101222.97;;;3.27;60.57
9307;BME280;4691;47.612;7.610;2023-02-20T05:31:27;101214.16;;;3.23;60.75
9307;BME280;4691;47.612;7.610;2023-02-20T05:33:52;101206.97;;;3.39;59.22
9307;BME280;4691;47.612;7.610;2023-02-20T05:36:18;101194.75;;;3.27;61.03
9307;BME280;4691;47.612;7.610;2023-02-20T05:38:43;101200.81;;;3.37;60.46
9307;BME280;4691;47.612;7.610;2023-02-20T05:41:16;101184.16;;;3.29;61.90
9307;BME280;4691;47.612;7.610;2023-02-20T05:43:41;101186.81;;;3.29;61.89
9307;BME280;4691;47.612;7.610;2023-02-20T05:46:07;101178.13;;;3.15;63.77
9307;BME280;4691;47.612;7.610;2023-02-20T05:48:32;101167.44;;;3.27;62.08
9307;BME280;4691;47.612;7.610;2023-02-20T05:50:57;101154.41;;;3.09;63.90
9307;BME280;4691;47.612;7.610;2023-02-20T05:53:26;101150.00;;;3.08;62.87
9307;BME280;4691;47.612;7.610;2023-02-20T05:55:51;101150.78;;;3.19;60.98
9307;BME280;4691;47.612;7.610;2023-02-20T05:58:17;101142.84;;;3.19;61.06
9307;BME280;4691;47.612;7.610;2023-02-20T06:00:42;101180.72;;;3.19;60.84
9307;BME280;4691;47.612;7.610;2023-02-20T06:03:08;101173.66;;;3.21;62.14
9307;BME280;4691;47.612;7.610;2023-02-20T06:05:36;101157.84;;;3.15;63.99
9307;BME280;4691;47.612;7.610;2023-02-20T06:08:02;101154.31;;;3.13;64.94
9307;BME280;4691;47.612;7.610;2023-02-20T06:10:28;101145.47;;;3.17;65.45
9307;BME280;4691;47.612;7.610;2023-02-20T06:12:54;101152.63;;;3.09;66.92
9307;BME280;4691;47.612;7.610;2023-02-20T06:15:19;101139.44;;;3.04;67.84
9307;BME280;4691;47.612;7.610;2023-02-20T06:17:44;101130.63;;;3.05;67.36
9307;BME280;4691;47.612;7.610;2023-02-20T06:20:10;101123.63;;;3.00;68.41
9307;BME280;4691;47.612;7.610;2023-02-20T06:22:35;101135.16;;;2.96;68.95
9307;BME280;4691;47.612;7.610;2023-02-20T06:25:00;101135.22;;;2.87;69.64
9307;BME280;4691;47.612;7.610;2023-02-20T06:27:26;101134.19;;;3.01;66.06
9307;BME280;4691;47.612;7.610;2023-02-20T06:29:54;101126.25;;;3.01;66.18
9307;BME280;4691;47.612;7.610;2023-02-20T06:32:19;101126.22;;;3.03;66.13
9307;BME280;4691;47.612;7.610;2023-02-20T06:34:45;101121.84;;;3.03;65.86
9307;BME280;4691;47.612;7.610;2023-02-20T06:37:11;101117.25;;;3.19;64.00
9307;BME280;4691;47.612;7.610;2023-02-20T06:39:36;101107.63;;;3.14;66.35
9307;BME280;4691;47.612;7.610;2023-02-20T06:42:04;101104.03;;;3.18;67.44
9307;BME280;4691;47.612;7.610;2023-02-20T06:44:30;101089.88;;;3.25;69.48
9307;BME280;4691;47.612;7.610;2023-02-20T06:46:57;101083.75;;;3.21;74.21
9307;BME280;4691;47.612;7.610;2023-02-20T06:49:23;101076.66;;;3.25;77.62
9307;BME280;4691;47.612;7.610;2023-02-20T06:51:51;101058.22;;;3.16;83.22
9307;BME280;4691;47.612;7.610;2023-02-20T06:54:17;101035.38;;;3.12;87.21
9307;BME280;4691;47.612;7.610;2023-02-20T06:56:44;101027.44;;;3.12;89.88
9307;BME280;4691;47.612;7.610;2023-02-20T06:59:09;101011.56;;;3.13;91.71
9307;BME280;4691;47.612;7.610;2023-02-20T07:01:39;101016.75;;;3.22;92.29
9307;BME280;4691;47.612;7.610;2023-02-20T07:04:05;101004.31;;;3.29;94.14
9307;BME280;4691;47.612;7.610;2023-02-20T07:06:31;100991.00;;;3.35;97.71
9307;BME280;4691;47.612;7.610;2023-02-20T07:08:56;100986.53;;;3.40;100.00
9307;BME280;4691;47.612;7.610;2023-02-20T07:11:22;100969.63;;;3.51;100.00
9307;BME280;4691;47.612;7.610;2023-02-20T07:13:49;100945.91;;;3.44;100.00
9307;BME280;4691;47.612;7.610;2023-02-20T07:16:14;100906.94;;;3.54;100.00
9307;BME280;4691;47.612;7.610;2023-02-20T07:18:40;100898.13;;;3.54;100.00
9307;BME280;4691;47.612;7.610;2023-02-20T07:21:05;100886.41;;;3.70;100.00
9307;BME280;4691;47.612;7.610;2023-02-20T07:23:31;100857.19;;;3.76;100.00
9307;BME280;4691;47.612;7.610;2023-02-20T07:25:56;100826.09;;;3.87;100.00
9307;BME280;4691;47.612;7.610;2023-02-20T07:28:22;100792.38;;;3.99;100.00
9307;BME280;4691;47.612;7.610;2023-02-20T07:30:48;100760.41;;;4.08;100.00
9307;BME280;4691;47.612;7.610;2023-02-20T07:33:14;100713.66;;;4.07;100.00
9307;BME280;4691;47.612;7.610;2023-02-20T07:35:40;100672.00;;;4.15;100.00
9307;BME280;4691;47.612;7.610;2023-02-20T07:38:06;100639.34;;;4.14;100.00
9307;BME280;4691;47.612;7.610;2023-02-20T07:40:31;100590.47;;;4.29;100.00
9307;BME280;4691;47.612;7.610;2023-02-20T07:42:57;100520.47;;;4.38;100.00
9307;BME280;4691;47.612;7.610;2023-02-20T07:45:23;100475.28;;;4.44;100.00
9307;BME280;4691;47.612;7.610;2023-02-20T07:47:49;100419.19;;;4.61;100.00
9307;BME280;4691;47.612;7.610;2023-02-20T07:50:15;100379.34;;;4.64;100.00
9307;BME280;4691;47.612;7.610;2023-02-20T07:52:41;100321.63;;;4.75;100.00
9307;BME280;4691;47.612;7.610;2023-02-20T07:55:07;100282.03;;;4.69;100.00
9307;BME280;4691;47.612;7.610;2023-02-20T07:57:35;100247.94;;;4.87;100.00
9307;BME280;4691;47.612;7.610;2023-02-20T08:00:01;100200.47;;;4.79;100.00
9307;BME280;4691;47.612;7.610;2023-02-20T08:02:26;100154.16;;;4.91;100.00
9307;BME280;4691;47.612;7.610;2023-02-20T08:04:52;100097.94;;;5.06;100.00
9307;BME280;4691;47.612;7.610;2023-02-20T08:07:17;100059.66;;;5.13;100.00
9307;BME280;4691;47.612;7.610;2023-02-20T08:09:45;100011.84;;;5.16;100.00
9307;BME280;4691;47.612;7.610;2023-02-20T08:12:11;99989.16;;;5.31;100.00
9307;BME280;4691;47.612;7.610;2023-02-20T08:14:36;99954.06;;;5.24;100.00
9307;BME280;4691;47.612;7.610;2023-02-20T08:17:01;99925.47;;;5.33;100.00
9307;BME280;4691;47.612;7.610;2023-02-20T08:19:27;99897.53;;;5.46;100.00
9307;BME280;4691;47.612;7.610;2023-02-20T08:21:52;99877.47;;;5.61;100.00
9307;BME280;4691;47.612;7.610;2023-02-20T08:24:17;99828.59;;;5.66;100.00
9307;BME280;4691;47.612;7.610;2023-02-20T08:26:46;99776.09;;;5.53;100.00
9307;BME280;4691;47.612;7.610;2023-02-20T08:29:13;99744.72;;;5.83;100.00
9307;BME280;4691;47.612;7.610;2023-02-20T08:31:39;99700.38;;;6.05;100.00
9307;BME280;4691;47.612;7.610;2023-02-20T08:34:04;99645.28;;;6.10;100.00
9307;BME280;4691;47.612;7.610;2023-02-20T08:36:30;99578.97;;;6.09;100.00
9307;BME280;4691;47.612;7.610;2023-02-20T08:38:56;99521.59;;;6.24;100.00
9307;BME280;4691;47.612;7.610;2023-02-20T08:41:22;99499.84;;;6.16;100.00
9307;BME280;4691;47.612;7.610;2023-02-20T08:43:47;99461.00;;;6.32;100.00
9307;BME280;4691;47.612;7.610;2023-02-20T08:46:13;99431.91;;;6.46;100.00
9307;BME280;4691;47.612;7.610;2023-02-20T08:48:39;99381.22;;;6.84;100.00
9307;BME280;4691;47.612;7.610;2023-02-20T08:51:05;99344.47;;;6.75;100.00
9307;BME280;4691;47.612;7.610;2023-02-20T08:53:31;99321.13;;;6.64;100.00
9307;BME280;4691;47.612;7.610;2023-02-20T08:55:56;99311.47;;;6.79;100.00
9307;BME280;4691;47.612;7.610;2023-02-20T08:58:23;99293.56;;;6.83;100.00
9307;BME280;4691;47.612;7.610;2023-02-20T09:00:49;99280.53;;;7.26;100.00
9307;BME280;4691;47.612;7.610;2023-02-20T09:03:15;99240.94;;;7.35;100.00
9307;BME280;4691;47.612;7.610;2023-02-20T09:05:41;99221.63;;;7.32;100.00
9307;BME280;4691;47.612;7.610;2023-02-20T09:08:07;99210.19;;;7.46;100.00
9307;BME280;4691;47.612;7.610;2023-02-20T09:10:32;99213.19;;;7.39;100.00
9307;BME280;4691;47.612;7.610;2023-02-20T09:12:58;99209.88;;;7.66;100.00
9307;BME280;4691;47.612;7.610;2023-02-20T09:15:24;99197.50;;;7.65;100.00
9307;BME280;4691;47.612;7.610;2023-02-20T09:17:51;99195.63;;;7.96;100.00
9307;BME280;4691;47.612;7.610;2023-02-20T09:20:19;99223.31;;;8.22;100.00
9307;BME280;4691;47.612;7.610;2023-02-20T09:22:49;99208.28;;;8.06;100.00
9307;BME280;4691;47.612;7.610;2023-02-20T09:25:16;99214.31;;;8.10;100.00
9307;BME280;4691;47.612;7.610;2023-02-20T09:27:41;99222.88;;;8.44;100.00
9307;BME280;4691;47.612;7.610;2023-02-20T09:30:07;99215.13;;;8.68;100.00
9307;BME280;4691;47.612;7.610;2023-02-20T09:32:33;99217.22;;;8.91;100.00
9307;BME280;4691;47.612;7.610;2023-02-20T09:34:58;99226.00;;;9.06;100.00
9307;BME280;4691;47.612;7.610;2023-02-20T09:37:25;99227.31;;;9.13;100.00
9307;BME280;4691;47.612;7.610;2023-02-20T09:39:51;99234.44;;;9.40;100.00
9307;BME280;4691;47.612;7.610;2023-02-20T09:45:27;99241.06;;;9.07;100.00
9307;BME280;4691;47.612;7.610;2023-02-20T09:53:06;99252.97;;;10.21;100.00
9307;BME280;4691;47.612;7.610;2023-02-20T09:55:40;99274.78;;;10.15;100.00
9307;BME280;4691;47.612;7.610;2023-02-20T09:58:06;99272.63;;;10.08;100.00
9307;BME280;4691;47.612;7.610;2023-02-20T10:00:41;99265.28;;;10.50;100.00
9307;BME280;4691;47.612;7.610;2023-02-20T10:05:47;99282.44;;;10.84;100.00
9307;BME280;4691;47.612;7.610;2023-02-20T10:08:18;99267.50;;;10.68;100.00
9307;BME280;4691;47.612;7.610;2023-02-20T10:10:44;99281.91;;;11.28;100.00
9307;BME280;4691;47.612;7.610;2023-02-20T10:16:39;99297.66;;;11.33;100.00
9307;BME280;4691;47.612;7.610;2023-02-20T10:19:25;99557.16;;;17.77;100.00
9307;BME280;4691;47.612;7.610;2023-02-20T10:22:13;99702.53;;;17.36;100.00
9307;BME280;4691;47.612;7.610;2023-02-20T10:29:56;99825.44;;;19.71;100.00
9307;BME280;4691;47.612;7.610;2023-02-20T10:32:35;99847.28;;;19.42;100.00
9307;BME280;4691;47.612;7.610;2023-02-20T10:35:17;99836.88;;;18.82;100.00
9307;BME280;4691;47.612;7.610;2023-02-20T10:37:48;99855.16;;;19.45;100.00
9307;BME280;4691;47.612;7.610;2023-02-20T10:42:57;99891.00;;;20.92;100.00
9307;BME280;4691;47.612;7.610;2023-02-20T10:45:41;99916.88;;;19.61;100.00
9307;BME280;4691;47.612;7.610;2023-02-20T10:48:11;99924.56;;;20.11;100.00
9307;BME280;4691;47.612;7.610;2023-02-20T10:50:45;99924.53;;;19.00;100.00
9307;BME280;4691;47.612;7.610;2023-02-20T10:55:46;99886.00;;;21.39;100.00
9307;BME280;4691;47.612;7.610;2023-02-20T10:58:26;99885.03;;;21.22;100.00
9307;BME280;4691;47.612;7.610;2023-02-20T11:00:55;99902.06;;;20.72;100.00
9307;BME280;4691;47.612;7.610;2023-02-20T11:03:33;99887.84;;;21.81;100.00
9307;BME280;4691;47.612;7.610;2023-02-20T11:06:01;99932.41;;;19.31;100.00
9307;BME280;4691;47.612;7.610;2023-02-20T11:08:31;99913.59;;;20.92;100.00
9307;BME280;4691;47.612;7.610;2023-02-20T11:11:01;99960.63;;;18.23;100.00
9307;BME280;4691;47.612;7.610;2023-02-20T11:13:34;99972.19;;;18.54;100.00
9307;BME280;4691;47.612;7.610;2023-02-20T11:16:04;99918.81;;;19.03;100.00
9307;BME280;4691;47.612;7.610;2023-02-20T11:18:35;99856.94;;;21.14;100.00
9307;BME280;4691;47.612;7.610;2023-02-20T11:21:02;99834.88;;;21.67;100.00
9307;BME280;4691;47.612;7.610;2023-02-20T11:26:24;99821.00;;;22.52;100.00
9307;BME280;4691;47.612;7.610;2023-02-20T11:28:57;99856.34;;;19.60;100.00
9307;BME280;4691;47.612;7.610;2023-02-20T11:31:24;99877.44;;;19.39;100.00
9307;BME280;4691;47.612;7.610;2023-02-20T11:33:53;99816.94;;;21.99;100.00
9307;BME280;4691;47.612;7.610;2023-02-20T11:36:21;99807.00;;;21.23;100.00
9307;BME280;4691;47.612;7.610;2023-02-20T11:38:48;99731.53;;;24.50;100.00
9307;BME280;4691;47.612;7.610;2023-02-20T11:41:30;99740.38;;;24.14;100.00
9307;BME280;4691;47.612;7.610;2023-02-20T11:46:34;99728.75;;;23.28;100.00
9307;BME280;4691;47.612;7.610;2023-02-20T11:49:02;99783.63;;;21.04;100.00
9307;BME280;4691;47.612;7.610;2023-02-20T11:51:35;99720.31;;;25.62;100.00
9307;BME280;4691;47.612;7.610;2023-02-20T11:54:16;99702.97;;;24.67;100.00
9307;BME280;4691;47.612;7.610;2023-02-20T11:59:45;99737.91;;;22.48;100.00
9307;BME280;4691;47.612;7.610;2023-02-20T12:05:04;99713.06;;;22.43;100.00
9307;BME280;4691;47.612;7.610;2023-02-20T12:07:58;99708.81;;;22.24;100.00
9307;BME280;4691;47.612;7.610;2023-02-20T12:10:45;99725.13;;;21.42;100.00
9307;BME280;4691;47.612;7.610;2023-02-20T12:13:15;99658.13;;;23.71;100.00
9307;BME280;4691;47.612;7.610;2023-02-20T12:15:50;99670.25;;;22.91;100.00
9307;BME280;4691;47.612;7.610;2023-02-20T12:18:44;99717.84;;;21.75;100.00
9307;BME280;4691;47.612;7.610;2023-02-20T12:21:21;99690.28;;;22.75;100.00
9307;BME280;4691;47.612;7.610;2023-02-20T12:24:11;99662.78;;;24.23;100.00
9307;BME280;4691;47.612;7.610;2023-02-20T12:26:41;99652.53;;;25.06;100.00
9307;BME280;4691;47.612;7.610;2023-02-20T12:35:02;99622.41;;;23.96;100.00
9307;BME280;4691;47.612;7.610;2023-02-20T12:37:32;99640.78;;;23.64;100.00
9307;BME280;4691;47.612;7.610;2023-02-20T12:45:33;99625.09;;;22.57;100.00
9307;BME280;4691;47.612;7.610;2023-02-20T12:56:35;99586.53;;;25.59;100.00
9307;BME280;4691;47.612;7.610;2023-02-20T12:59:28;99553.91;;;25.36;100.00
9307;BME280;4691;47.612;7.610;2023-02-20T13:02:01;99593.78;;;23.16;100.00
9307;BME280;4691;47.612;7.610;2023-02-20T13:04:41;99604.72;;;24.21;100.00
9307;BME280;4691;47.612;7.610;2023-02-20T13:07:25;99492.94;;;26.25;100.00
9307;BME280;4691;47.612;7.610;2023-02-20T13:12:24;99536.00;;;26.92;100.00
9307;BME280;4691;47.612;7.610;2023-02-20T13:15:02;99486.78;;;27.84;100.00
9307;BME280;4691;47.612;7.610;2023-02-20T13:17:51;99506.06;;;27.11;100.00
9307;BME280;4691;47.612;7.610;2023-02-20T13:20:23;99626.81;;;22.58;100.00
9307;BME280;4691;47.612;7.610;2023-02-20T13:25:45;99568.13;;;25.25;100.00
9307;BME280;4691;47.612;7.610;2023-02-20T13:28:28;99533.75;;;26.00;100.00
9307;BME280;4691;47.612;7.610;2023-02-20T13:31:22;99543.72;;;25.79;100.00
9307;BME280;4691;47.612;7.610;2023-02-20T13:36:42;99502.59;;;28.60;100.00
9307;BME280;4691;47.612;7.610;2023-02-20T13:42:06;99454.97;;;30.04;100.00
9307;BME280;4691;47.612;7.610;2023-02-20T13:44:48;99488.47;;;27.92;100.00
9307;BME280;4691;47.612;7.610;2023-02-20T14:03:16;99467.44;;;27.19;100.00
9307;BME280;4691;47.612;7.610;2023-02-20T14:19:25;99421.69;;;28.30;100.00
9307;BME280;4691;47.612;7.610;2023-02-20T14:21:52;99447.56;;;27.17;100.00
9307;BME280;4691;47.612;7.610;2023-02-20T14:24:28;99402.91;;;28.58;100.00
9307;BME280;4691;47.612;7.610;2023-02-20T14:26:54;99398.59;;;27.99;100.00
9307;BME280;4691;47.612;7.610;2023-02-20T14:29:28;99406.47;;;27.89;100.00
9307;BME280;4691;47.612;7.610;2023-02-20T14:31:56;99363.22;;;29.23;100.00
9307;BME280;4691;47.612;7.610;2023-02-20T14:35:10;99394.47;;;28.21;100.00
9307;BME280;4691;47.612;7.610;2023-02-20T14:40:08;99389.72;;;27.32;100.00
9307;BME280;4691;47.612;7.610;2023-02-20T14:42:42;99377.50;;;26.81;100.00
9307;BME280;4691;47.612;7.610;2023-02-20T14:45:14;99341.19;;;29.60;100.00
9307;BME280;4691;47.612;7.610;2023-02-20T14:47:54;99377.84;;;27.45;100.00
9307;BME280;4691;47.612;7.610;2023-02-20T14:50:32;99392.03;;;28.00;100.00
9307;BME280;4691;47.612;7.610;2023-02-20T14:53:14;99346.19;;;28.26;100.00
9307;BME280;4691;47.612;7.610;2023-02-20T14:55:40;99380.44;;;26.93;100.00
9307;BME280;4691;47.612;7.610;2023-02-20T14:58:09;99350.72;;;27.75;100.00
9307;BME280;4691;47.612;7.610;2023-02-20T15:00:37;99401.19;;;28.89;100.00
9307;BME280;4691;47.612;7.610;2023-02-20T15:03:18;99405.16;;;25.98;100.00
9307;BME280;4691;47.612;7.610;2023-02-20T15:05:44;99364.25;;;27.63;100.00
9307;BME280;4691;47.612;7.610;2023-02-20T15:11:32;99381.63;;;27.57;100.00
9307;BME280;4691;47.612;7.610;2023-02-20T15:14:00;99401.78;;;26.64;100.00
9307;BME280;4691;47.612;7.610;2023-02-20T15:16:30;99408.03;;;26.45;100.00
9307;BME280;4691;47.612;7.610;2023-02-20T15:18:57;99421.56;;;25.85;100.00
9307;BME280;4691;47.612;7.610;2023-02-20T15:21:55;99442.69;;;24.42;100.00
9307;BME280;4691;47.612;7.610;2023-02-20T15:26:50;99408.66;;;26.40;100.00
9307;BME280;4691;47.612;7.610;2023-02-20T15:29:22;99422.41;;;25.23;100.00
9307;BME280;4691;47.612;7.610;2023-02-20T15:32:22;99432.34;;;25.02;100.00
9307;BME280;4691;47.612;7.610;2023-02-20T15:34:55;99446.47;;;24.41;100.00
9307;BME280;4691;47.612;7.610;2023-02-20T15:37:25;99443.91;;;24.54;100.00
9307;BME280;4691;47.612;7.610;2023-02-20T15:39:52;99429.50;;;24.89;100.00
9307;BME280;4691;47.612;7.610;2023-02-20T15:42:19;99457.19;;;23.32;100.00
9307;BME280;4691;47.612;7.610;2023-02-20T15:44:45;99545.44;;;19.23;100.00
9307;BME280;4691;47.612;7.610;2023-02-20T15:47:11;99594.19;;;17.87;100.00
9307;BME280;4691;47.612;7.610;2023-02-20T15:49:36;99620.13;;;16.72;100.00
9307;BME280;4691;47.612;7.610;2023-02-20T15:52:02;99616.38;;;16.64;100.00
9307;BME280;4691;47.612;7.610;2023-02-20T15:54:27;99610.56;;;16.59;100.00
9307;BME280;4691;47.612;7.610;2023-02-20T15:56:53;99615.47;;;16.34;100.00
9307;BME280;4691;47.612;7.610;2023-02-20T15:59:18;99621.41;;;16.28;100.00